createdAt,value
2022-10-09T00:01:16.167Z,100906.69
2022-10-09T00:04:17.694Z,100902.38
2022-10-09T00:07:19.637Z,100908.47
2022-10-09T00:10:21.909Z,100907.31
2022-10-09T00:13:24.008Z,100904.78
2022-10-09T00:16:26.984Z,100901.81
2022-10-09T00:19:29.040Z,100903.62
2022-10-09T00:22:30.785Z,100906.78
2022-10-09T00:25:33.085Z,100908.69
2022-10-09T00:28:38.519Z,100905.88
2022-10-09T00:31:40.887Z,100907.78
2022-10-09T00:34:42.623Z,100909.56
2022-10-09T00:37:44.722Z,100908.69
2022-10-09T00:40:46.584Z,100907.41
2022-10-09T00:43:53.845Z,100898.72
2022-10-09T00:46:55.790Z,100889.16
2022-10-09T00:50:09.125Z,100886.44
2022-10-09T00:53:16.473Z,100894.91
2022-10-09T00:56:18.733Z,100885.19
2022-10-09T00:59:21.222Z,100880.03
2022-10-09T01:02:22.836Z,100871.72
2022-10-09T01:05:43.142Z,100869.56
2022-10-09T01:08:57.139Z,100873.12
2022-10-09T01:12:22.025Z,100859.56
2022-10-09T01:15:49.346Z,100856.16
2022-10-09T01:19:14.268Z,100850.41
2022-10-09T01:23:12.137Z,100845.72
2022-10-09T01:26:17.093Z,100849.59
2022-10-09T01:29:21.344Z,100855.72
2022-10-09T01:32:29.579Z,100850.59
2022-10-09T01:35:32.860Z,100852.22
2022-10-09T01:38:35.164Z,100848.94
2022-10-09T01:41:37.649Z,100843.69
2022-10-09T01:44:39.644Z,100852.22
2022-10-09T01:47:41.269Z,100853.75
2022-10-09T01:50:51.580Z,100863.28
2022-10-09T01:53:58.576Z,100859.66
2022-10-09T01:57:04.952Z,100871.00
2022-10-09T02:00:10.387Z,100871.63
2022-10-09T02:03:15.584Z,100878.38
2022-10-09T02:06:18.961Z,100873.16
2022-10-09T02:09:21.330Z,100874.56
2022-10-09T02:12:27.798Z,100877.00
2022-10-09T02:15:34.877Z,100871.34
2022-10-09T02:18:50.078Z,100878.06
2022-10-09T02:22:01.353Z,100878.25
2022-10-09T02:25:06.668Z,100883.03
2022-10-09T02:28:09.629Z,100894.41
2022-10-09T02:31:26.474Z,100889.59
2022-10-09T02:34:28.146Z,100884.06
2022-10-09T02:37:30.016Z,100880.00
2022-10-09T02:40:31.562Z,100883.53
2022-10-09T02:43:33.184Z,100880.41
2022-10-09T02:46:35.722Z,100878.13
2022-10-09T02:49:37.636Z,100877.41
2022-10-09T02:52:39.462Z,100878.72
2022-10-09T02:55:41.033Z,100884.03
2022-10-09T02:58:42.923Z,100899.13
2022-10-09T03:01:44.561Z,100899.00
2022-10-09T03:04:46.554Z,100902.63
2022-10-09T03:07:51.835Z,100911.09
2022-10-09T03:10:53.431Z,100914.59
2022-10-09T03:13:55.630Z,100917.41
2022-10-09T03:16:57.639Z,100911.31
2022-10-09T03:19:59.199Z,100903.50
2022-10-09T03:23:01.127Z,100911.22
2022-10-09T03:26:06.759Z,100915.28
2022-10-09T03:29:08.600Z,100914.56
2022-10-09T03:32:10.689Z,100918.37
2022-10-09T03:35:12.870Z,100925.88
2022-10-09T03:38:15.101Z,100921.75
2022-10-09T03:41:16.669Z,100920.63
2022-10-09T03:44:18.602Z,100917.53
2022-10-09T03:47:20.178Z,100910.94
2022-10-09T03:50:21.797Z,100912.53
2022-10-09T03:53:23.711Z,100910.69
2022-10-09T03:56:25.428Z,100911.78
2022-10-09T03:59:27.306Z,100911.66
2022-10-09T04:02:28.932Z,100914.09
2022-10-09T04:05:34.764Z,100922.16
2022-10-09T04:08:36.737Z,100920.03
2022-10-09T04:11:38.333Z,100918.56
2022-10-09T04:14:40.330Z,100924.00
2022-10-09T04:17:41.870Z,100933.38
2022-10-09T04:20:51.306Z,100929.25
2022-10-09T04:23:53.097Z,100927.47
2022-10-09T04:26:54.840Z,100936.62
2022-10-09T04:29:56.777Z,100946.56
2022-10-09T04:32:58.312Z,100949.59
2022-10-09T04:36:00.271Z,100954.41
2022-10-09T04:39:01.890Z,100957.75
2022-10-09T04:42:03.816Z,100953.41
2022-10-09T04:45:06.017Z,100959.28
2022-10-09T04:48:07.577Z,100954.22
2022-10-09T04:51:10.262Z,100958.41
2022-10-09T04:54:12.395Z,100950.41
2022-10-09T04:57:13.979Z,100953.06
2022-10-09T05:00:16.046Z,100953.31
2022-10-09T05:03:17.612Z,100950.59
2022-10-09T05:06:20.799Z,100957.72
2022-10-09T05:09:22.405Z,100957.38
2022-10-09T05:12:23.967Z,100941.13
2022-10-09T05:15:25.990Z,100944.28
2022-10-09T05:18:27.590Z,100960.50
2022-10-09T05:21:29.741Z,100968.22
2022-10-09T05:24:31.591Z,100972.06
2022-10-09T05:27:33.263Z,100974.62
2022-10-09T05:30:34.811Z,100981.25
2022-10-09T05:33:36.913Z,100981.72
2022-10-09T05:36:38.488Z,100976.50
2022-10-09T05:39:40.422Z,100981.50
2022-10-09T05:42:41.985Z,100992.31
2022-10-09T05:45:43.600Z,100997.06
2022-10-09T05:48:51.896Z,100997.28
2022-10-09T05:51:54.757Z,101004.78
2022-10-09T05:54:57.236Z,100999.56
2022-10-09T05:57:58.802Z,101013.81
2022-10-09T06:01:00.825Z,101012.28
2022-10-09T06:04:03.983Z,101020.31
2022-10-09T06:07:05.542Z,101025.81
2022-10-09T06:10:08.086Z,101039.31
2022-10-09T06:13:09.849Z,101035.75
2022-10-09T06:16:14.109Z,101037.41
2022-10-09T06:19:18.155Z,101047.22
2022-10-09T06:22:19.818Z,101047.03
2022-10-09T06:25:21.665Z,101051.94
2022-10-09T06:28:23.989Z,101055.88
2022-10-09T06:31:28.758Z,101050.78
2022-10-09T06:34:30.876Z,101066.84
2022-10-09T06:37:32.730Z,101066.06
2022-10-09T06:40:36.614Z,101068.91
2022-10-09T06:43:39.532Z,101078.72
2022-10-09T06:46:41.989Z,101078.78
2022-10-09T06:49:43.568Z,101088.31
2022-10-09T06:52:45.432Z,101087.53
2022-10-09T06:55:54.669Z,101086.72
2022-10-09T06:58:59.328Z,101092.72
2022-10-09T07:02:01.252Z,101099.84
2022-10-09T07:05:03.536Z,101104.59
2022-10-09T07:08:05.375Z,101103.72
2022-10-09T07:11:28.670Z,101109.53
2022-10-09T07:14:30.356Z,101110.84
2022-10-09T07:17:32.672Z,101120.78
2022-10-09T07:20:36.869Z,101123.03
2022-10-09T07:23:38.508Z,101122.53
2022-10-09T07:26:42.822Z,101127.56
2022-10-09T07:29:44.668Z,101128.41
2022-10-09T07:32:46.458Z,101126.84
2022-10-09T07:35:59.731Z,101136.47
2022-10-09T07:39:05.100Z,101132.31
2022-10-09T07:42:07.016Z,101126.91
2022-10-09T07:45:09.255Z,101129.31
2022-10-09T07:48:11.003Z,101124.53
2022-10-09T07:51:16.949Z,101125.31
2022-10-09T07:54:18.659Z,101132.63
2022-10-09T07:57:20.491Z,101138.06
2022-10-09T08:00:22.131Z,101135.72
2022-10-09T08:03:23.708Z,101141.25
2022-10-09T08:06:26.108Z,101140.50
2022-10-09T08:09:28.072Z,101146.03
2022-10-09T08:12:29.618Z,101140.84
2022-10-09T08:15:31.195Z,101148.66
2022-10-09T08:18:34.035Z,101148.53
2022-10-09T08:21:35.604Z,101151.84
2022-10-09T08:24:37.649Z,101158.00
2022-10-09T08:27:39.593Z,101157.88
2022-10-09T08:30:41.160Z,101155.34
2022-10-09T08:33:43.316Z,101148.28
2022-10-09T08:36:44.874Z,101164.94
2022-10-09T08:39:46.725Z,101165.31
2022-10-09T08:42:56.684Z,101169.91
2022-10-09T08:46:07.138Z,101169.09
2022-10-09T08:49:36.174Z,101160.00
2022-10-09T08:52:46.747Z,101175.00
2022-10-09T08:55:56.742Z,101167.81
2022-10-09T08:58:58.325Z,101166.75
2022-10-09T09:02:27.400Z,101170.47
2022-10-09T09:05:43.681Z,101173.81
2022-10-09T09:08:58.199Z,101168.50
2022-10-09T09:12:22.275Z,101175.53
2022-10-09T09:15:39.679Z,101174.81
2022-10-09T09:18:58.765Z,101180.75
2022-10-09T09:22:00.879Z,101179.44
2022-10-09T09:25:17.798Z,101176.81
2022-10-09T09:28:26.454Z,101171.38
2022-10-09T09:31:36.186Z,101182.97
2022-10-09T09:34:41.102Z,101183.59
2022-10-09T09:37:42.881Z,101184.31
2022-10-09T09:40:47.242Z,101189.66
2022-10-09T09:43:49.484Z,101191.94
2022-10-09T09:47:20.839Z,101200.81
2022-10-09T09:50:46.926Z,101193.50
2022-10-09T09:53:57.637Z,101180.94
2022-10-09T09:57:13.049Z,101183.19
2022-10-09T10:00:23.172Z,101185.16
2022-10-09T10:03:25.641Z,101180.75
2022-10-09T10:06:35.648Z,101181.31
2022-10-09T10:09:37.591Z,101190.16
2022-10-09T10:12:46.333Z,101186.56
2022-10-09T10:15:55.043Z,101177.47
2022-10-09T10:18:58.234Z,101190.91
2022-10-09T10:22:05.660Z,101195.91
2022-10-09T10:25:18.166Z,101189.31
2022-10-09T10:28:28.093Z,101183.91
2022-10-09T10:31:42.103Z,101192.06
2022-10-09T10:35:05.318Z,101193.84
2022-10-09T10:38:13.969Z,101193.66
2022-10-09T10:41:24.441Z,101197.31
2022-10-09T10:44:40.994Z,101197.28
2022-10-09T10:47:49.727Z,101204.38
2022-10-09T10:51:03.365Z,101194.69
2022-10-09T10:54:33.134Z,101193.84
2022-10-09T10:57:46.968Z,101197.34
2022-10-09T11:01:04.332Z,101200.63
2022-10-09T11:04:21.628Z,101199.66
2022-10-09T11:07:41.761Z,101199.94
2022-10-09T11:11:10.089Z,101202.47
2022-10-09T11:14:25.903Z,101197.94
2022-10-09T11:17:50.969Z,101208.53
2022-10-09T11:21:19.744Z,101204.25
2022-10-09T11:24:21.219Z,101198.03
2022-10-09T11:27:47.021Z,101208.62
2022-10-09T11:30:55.815Z,101201.62
2022-10-09T11:34:03.655Z,101195.44
2022-10-09T11:37:14.714Z,101198.84
2022-10-09T11:40:20.107Z,101204.25
2022-10-09T11:43:24.642Z,101196.09
2022-10-09T11:46:36.601Z,101201.44
2022-10-09T11:50:13.444Z,101200.69
2022-10-09T11:53:18.504Z,101192.03
2022-10-09T11:56:24.703Z,101187.62
2022-10-09T11:59:36.323Z,101185.81
2022-10-09T12:02:38.525Z,101186.69
2022-10-09T12:05:43.925Z,101182.28
2022-10-09T12:09:03.714Z,101174.25
2022-10-09T12:12:09.237Z,101176.91
2022-10-09T12:15:37.128Z,101180.41
2022-10-09T12:18:44.250Z,101171.59
2022-10-09T12:22:04.484Z,101174.38
2022-10-09T12:25:21.082Z,101174.25
2022-10-09T12:28:35.832Z,101164.66
2022-10-09T12:31:41.254Z,101165.53
2022-10-09T12:34:49.458Z,101167.31
2022-10-09T12:37:51.737Z,101172.63
2022-10-09T12:40:55.779Z,101185.84
2022-10-09T12:43:58.506Z,101179.34
2022-10-09T12:47:13.824Z,101184.81
2022-10-09T12:50:33.402Z,101174.97
2022-10-09T12:53:47.354Z,101180.19
2022-10-09T12:56:49.736Z,101173.16
2022-10-09T12:59:52.206Z,101162.56
2022-10-09T13:02:54.656Z,101167.78
2022-10-09T13:05:57.704Z,101164.44
2022-10-09T13:09:17.402Z,101159.19
2022-10-09T13:12:30.519Z,101159.16
2022-10-09T13:15:36.961Z,101156.56
2022-10-09T13:18:38.888Z,101161.81
2022-10-09T13:21:40.617Z,101149.47
2022-10-09T13:24:42.339Z,101163.78
2022-10-09T13:27:43.960Z,101154.06
2022-10-09T13:30:45.943Z,101159.19
2022-10-09T13:33:48.480Z,101154.63
2022-10-09T13:36:50.523Z,101146.38
2022-10-09T13:39:57.872Z,101153.25
2022-10-09T13:43:03.237Z,101149.56
2022-10-09T13:46:05.064Z,101136.91
2022-10-09T13:49:07.089Z,101135.16
2022-10-09T13:52:09.547Z,101134.84
2022-10-09T13:55:11.893Z,101136.62
2022-10-09T13:58:13.452Z,101120.66
2022-10-09T14:01:15.257Z,101137.31
2022-10-09T14:04:17.244Z,101140.34
2022-10-09T14:07:18.786Z,101137.81
2022-10-09T14:10:23.952Z,101132.75
2022-10-09T14:13:25.692Z,101126.91
2022-10-09T14:16:29.690Z,101141.13
2022-10-09T14:19:31.568Z,101137.03
2022-10-09T14:22:33.418Z,101140.62
2022-10-09T14:25:35.919Z,101131.03
2022-10-09T14:28:37.642Z,101137.28
2022-10-09T14:31:39.749Z,101135.50
2022-10-09T14:34:41.605Z,101139.78
2022-10-09T14:37:43.224Z,101138.72
2022-10-09T14:40:45.689Z,101137.75
2022-10-09T14:43:48.838Z,101143.84
2022-10-09T14:46:50.592Z,101140.41
2022-10-09T14:49:52.291Z,101141.25
2022-10-09T14:52:54.286Z,101145.41
2022-10-09T14:55:55.848Z,101141.63
2022-10-09T14:59:00.252Z,101146.88
2022-10-09T15:02:02.439Z,101145.97
2022-10-09T15:05:05.112Z,101151.75
2022-10-09T15:08:06.668Z,101153.44
2022-10-09T15:11:09.910Z,101160.47
2022-10-09T15:14:11.477Z,101158.22
2022-10-09T15:17:13.418Z,101154.75
2022-10-09T15:20:15.039Z,101149.69
2022-10-09T15:23:16.776Z,101153.09
2022-10-09T15:26:18.871Z,101160.03
2022-10-09T15:29:20.545Z,101163.31
2022-10-09T15:32:24.421Z,101158.91
2022-10-09T15:35:26.082Z,101170.94
2022-10-09T15:38:27.697Z,101172.31
2022-10-09T15:41:32.195Z,101169.28
2022-10-09T15:44:33.754Z,101174.03
2022-10-09T15:47:50.590Z,101172.16
2022-10-09T15:50:53.988Z,101174.66
2022-10-09T15:53:56.499Z,101177.06
2022-10-09T15:56:58.501Z,101178.28
2022-10-09T16:00:00.432Z,101170.53
2022-10-09T16:03:02.360Z,101183.22
2022-10-09T16:06:07.530Z,101184.34
2022-10-09T16:09:09.225Z,101187.50
2022-10-09T16:12:10.901Z,101192.41
2022-10-09T16:15:13.019Z,101190.22
2022-10-09T16:18:20.252Z,101192.50
2022-10-09T16:21:27.861Z,101200.50
2022-10-09T16:24:31.446Z,101207.69
2022-10-09T16:27:33.649Z,101214.62
2022-10-09T16:30:43.144Z,101213.28
2022-10-09T16:33:45.276Z,101224.69
2022-10-09T16:36:46.818Z,101227.13
2022-10-09T16:39:49.785Z,101228.53
2022-10-09T16:42:51.737Z,101233.41
2022-10-09T16:45:53.912Z,101238.81
2022-10-09T16:48:57.116Z,101241.62
2022-10-09T16:51:58.888Z,101245.41
2022-10-09T16:55:00.866Z,101247.37
2022-10-09T16:58:03.072Z,101250.72
2022-10-09T17:01:09.901Z,101252.31
2022-10-09T17:04:13.205Z,101255.97
2022-10-09T17:07:15.507Z,101250.47
2022-10-09T17:10:17.558Z,101249.41
2022-10-09T17:13:19.752Z,101258.66
2022-10-09T17:16:23.608Z,101262.25
2022-10-09T17:19:25.666Z,101259.06
2022-10-09T17:22:28.037Z,101264.13
2022-10-09T17:25:30.082Z,101271.53
2022-10-09T17:28:32.658Z,101268.59
2022-10-09T17:31:35.046Z,101265.06
2022-10-09T17:34:36.787Z,101269.72
2022-10-09T17:37:39.106Z,101268.00
2022-10-09T17:40:42.371Z,101280.63
2022-10-09T17:43:44.665Z,101280.34
2022-10-09T17:46:46.339Z,101274.66
2022-10-09T17:49:48.533Z,101278.97
2022-10-09T17:52:50.374Z,101283.59
2022-10-09T17:55:55.052Z,101293.00
2022-10-09T17:58:58.608Z,101289.12
2022-10-09T18:02:01.046Z,101294.69
2022-10-09T18:05:03.526Z,101295.53
2022-10-09T18:08:05.234Z,101290.41
2022-10-09T18:11:15.277Z,101293.34
2022-10-09T18:14:17.771Z,101297.75
2022-10-09T18:17:20.048Z,101303.28
2022-10-09T18:20:21.932Z,101302.69
2022-10-09T18:23:25.136Z,101305.69
2022-10-09T18:26:28.197Z,101316.47
2022-10-09T18:29:29.812Z,101315.81
2022-10-09T18:32:31.965Z,101315.44
2022-10-09T18:35:39.018Z,101320.16
2022-10-09T18:38:41.466Z,101317.78
2022-10-09T18:41:44.413Z,101320.31
2022-10-09T18:44:46.930Z,101314.22
2022-10-09T18:47:49.617Z,101321.91
2022-10-09T18:50:51.692Z,101328.00
2022-10-09T18:53:59.633Z,101324.41
2022-10-09T18:57:03.378Z,101321.31
2022-10-09T19:00:06.693Z,101328.31
2022-10-09T19:03:08.908Z,101327.22
2022-10-09T19:06:11.512Z,101330.16
2022-10-09T19:09:14.659Z,101327.09
2022-10-09T19:12:18.819Z,101335.50
2022-10-09T19:15:21.757Z,101340.53
2022-10-09T19:18:23.917Z,101343.13
2022-10-09T19:21:26.272Z,101354.91
2022-10-09T19:24:32.130Z,101361.47
2022-10-09T19:27:35.722Z,101363.13
2022-10-09T19:30:39.715Z,101355.78
2022-10-09T19:33:42.561Z,101354.88
2022-10-09T19:36:47.427Z,101355.84
2022-10-09T19:39:49.600Z,101359.19
2022-10-09T19:42:51.385Z,101354.75
2022-10-09T19:46:06.606Z,101365.63
2022-10-09T19:49:09.382Z,101367.59
2022-10-09T19:52:11.305Z,101371.59
2022-10-09T19:55:13.585Z,101372.66
2022-10-09T19:58:17.852Z,101375.41
2022-10-09T20:01:22.073Z,101373.50
2022-10-09T20:04:23.665Z,101382.91
2022-10-09T20:07:25.264Z,101387.03
2022-10-09T20:10:31.121Z,101384.78
2022-10-09T20:13:35.092Z,101382.34
2022-10-09T20:16:37.773Z,101375.78
2022-10-09T20:19:44.817Z,101381.53
2022-10-09T20:22:47.632Z,101382.34
2022-10-09T20:25:58.741Z,101383.88
2022-10-09T20:29:00.567Z,101383.09
2022-10-09T20:32:02.576Z,101387.28
2022-10-09T20:35:05.423Z,101390.34
2022-10-09T20:38:07.439Z,101396.37
2022-10-09T20:41:09.182Z,101395.63
2022-10-09T20:44:12.355Z,101388.63
2022-10-09T20:47:14.114Z,101394.56
2022-10-09T20:50:16.130Z,101400.59
2022-10-09T20:53:17.811Z,101404.13
2022-10-09T20:56:19.698Z,101407.28
2022-10-09T20:59:21.627Z,101406.47
2022-10-09T21:02:24.619Z,101405.66
2022-10-09T21:05:26.677Z,101403.13
2022-10-09T21:08:28.248Z,101404.47
2022-10-09T21:11:32.463Z,101401.03
2022-10-09T21:14:34.773Z,101414.44
2022-10-09T21:17:36.320Z,101410.72
2022-10-09T21:20:40.530Z,101405.69
2022-10-09T21:23:43.979Z,101400.81
2022-10-09T21:26:47.483Z,101402.87
2022-10-09T21:29:49.078Z,101406.47
2022-10-09T21:32:51.296Z,101413.59
2022-10-09T21:35:55.442Z,101407.06
2022-10-09T21:38:57.209Z,101405.59
2022-10-09T21:41:59.321Z,101403.22
2022-10-09T21:45:00.864Z,101406.59
2022-10-09T21:48:03.198Z,101401.19
2022-10-09T21:51:05.395Z,101410.59
2022-10-09T21:54:07.035Z,101417.34
2022-10-09T21:57:08.616Z,101404.03
2022-10-09T22:00:11.451Z,101404.16
2022-10-09T22:03:13.084Z,101403.91
2022-10-09T22:06:19.181Z,101396.34
2022-10-09T22:09:21.127Z,101395.28
2022-10-09T22:12:23.124Z,101398.31
2022-10-09T22:15:25.089Z,101403.56
2022-10-09T22:18:27.022Z,101402.28
2022-10-09T22:21:29.611Z,101401.84
2022-10-09T22:24:31.181Z,101398.81
2022-10-09T22:27:33.192Z,101402.09
2022-10-09T22:30:34.810Z,101397.34
2022-10-09T22:33:37.359Z,101394.47
2022-10-09T22:36:39.204Z,101392.81
2022-10-09T22:39:40.757Z,101405.44
2022-10-09T22:42:42.384Z,101399.78
2022-10-09T22:45:44.175Z,101404.09
2022-10-09T22:48:46.284Z,101394.72
2022-10-09T22:51:47.825Z,101400.28
2022-10-09T22:54:49.392Z,101395.59
2022-10-09T22:57:50.928Z,101397.47
2022-10-09T23:00:55.944Z,101395.91
2022-10-09T23:03:59.745Z,101418.53
2022-10-09T23:07:01.373Z,101413.16
2022-10-09T23:10:03.372Z,101408.84
2022-10-09T23:13:05.445Z,101417.16
2022-10-09T23:16:10.751Z,101420.59
2022-10-09T23:19:13.073Z,101430.56
2022-10-09T23:22:14.773Z,101433.56
2022-10-09T23:25:16.381Z,101419.34
2022-10-09T23:28:18.297Z,101420.97
2022-10-09T23:31:20.080Z,101422.44
2022-10-09T23:34:21.685Z,101425.78
2022-10-09T23:37:23.746Z,101425.06
2022-10-09T23:40:25.332Z,101425.94
2022-10-09T23:43:27.682Z,101426.34
2022-10-09T23:46:33.009Z,101429.22
2022-10-09T23:49:34.546Z,101426.34
2022-10-09T23:52:36.515Z,101417.03
2022-10-09T23:55:38.124Z,101422.69
2022-10-09T23:58:39.687Z,101415.53
